SBI642 URRP-URSS
Flight info
| Callsign | SBI642 |
|---|---|
| Flight time | 0h 47m |
| Altitude | FL330 |
| Route | AMEPU DONID W79 BINOL |
| Aircraft | B738/M-S/N |
Departure
| Time | 2026-05-09 07:05 |
|---|---|
| Airport | Platov International Airport (URRP) |
Arrival
| Time | 2026-05-09 07:53 |
|---|---|
| Airport | Sochi International Airport (URSS) |
| Time | Latitude | Longitude | Altitude | Speed | Heading |
|---|---|---|---|---|---|
| 2026-05-09 06:37 | 47.48961 | 39.92809 | 293 ft | 0 kts | 144° |
| 2026-05-09 06:51 | 47.48982 | 39.92786 | 293 ft | 7 kts | 144° |
| 2026-05-09 06:51 | 47.48997 | 39.92770 | 293 ft | 0 kts | 85° |
| 2026-05-09 06:57 | 47.48998 | 39.92770 | 293 ft | 0 kts | 323° |
| 2026-05-09 06:57 | 47.48998 | 39.92769 | 293 ft | 0 kts | 323° |
| 2026-05-09 06:58 | 47.49005 | 39.92762 | 293 ft | 4 kts | 323° |
| 2026-05-09 06:58 | 47.49034 | 39.92739 | 293 ft | 0 kts | 352° |
| 2026-05-09 06:58 | 47.49039 | 39.92739 | 293 ft | 3 kts | 0° |
| 2026-05-09 06:59 | 47.49076 | 39.92744 | 293 ft | 8 kts | 354° |
| 2026-05-09 06:59 | 47.49149 | 39.92713 | 293 ft | 14 kts | 337° |
| 2026-05-09 06:59 | 47.49237 | 39.92650 | 293 ft | 15 kts | 335° |
| 2026-05-09 06:59 | 47.49294 | 39.92688 | 293 ft | 10 kts | 64° |
| 2026-05-09 07:00 | 47.49338 | 39.92789 | 293 ft | 14 kts | 53° |
| 2026-05-09 07:00 | 47.49406 | 39.92923 | 293 ft | 18 kts | 53° |
| 2026-05-09 07:00 | 47.49492 | 39.93103 | 293 ft | 24 kts | 54° |
| 2026-05-09 07:00 | 47.49591 | 39.93308 | 293 ft | 26 kts | 55° |
| 2026-05-09 07:01 | 47.49707 | 39.93547 | 293 ft | 31 kts | 54° |
| 2026-05-09 07:01 | 47.49817 | 39.93773 | 293 ft | 17 kts | 56° |
| 2026-05-09 07:01 | 47.49885 | 39.93922 | 293 ft | 18 kts | 56° |
| 2026-05-09 07:01 | 47.49975 | 39.93983 | 293 ft | 8 kts | 328° |
| 2026-05-09 07:02 | 47.49979 | 39.93978 | 293 ft | 0 kts | 324° |
| 2026-05-09 07:03 | 47.50022 | 39.93937 | 293 ft | 9 kts | 326° |
| 2026-05-09 07:04 | 47.50060 | 39.93856 | 293 ft | 11 kts | 264° |
| 2026-05-09 07:04 | 47.50035 | 39.93789 | 293 ft | 0 kts | 235° |
| 2026-05-09 07:04 | 47.49923 | 39.93560 | 293 ft | 83 kts | 234° |
| 2026-05-09 07:05 | 47.49356 | 39.92383 | 390 ft | 189 kts | 235° |
| 2026-05-09 07:05 | 47.48401 | 39.90442 | 870 ft | 286 kts | 235° |
| 2026-05-09 07:05 | 47.47204 | 39.87974 | 1328 ft | 296 kts | 235° |
| 2026-05-09 07:05 | 47.45928 | 39.85492 | 2235 ft | 311 kts | 229° |
| 2026-05-09 07:06 | 47.44106 | 39.83626 | 3456 ft | 331 kts | 206° |
| 2026-05-09 07:06 | 47.41846 | 39.82814 | 4681 ft | 343 kts | 185° |
| 2026-05-09 07:06 | 47.39437 | 39.83156 | 5945 ft | 355 kts | 169° |
| 2026-05-09 07:06 | 47.36999 | 39.83934 | 7190 ft | 363 kts | 170° |
| 2026-05-09 07:07 | 47.34467 | 39.84317 | 8417 ft | 371 kts | 179° |
| 2026-05-09 07:07 | 47.31872 | 39.84182 | 9656 ft | 378 kts | 185° |
| 2026-05-09 07:07 | 47.29230 | 39.83831 | 10883 ft | 386 kts | 186° |
| 2026-05-09 07:07 | 47.26528 | 39.83444 | 12111 ft | 395 kts | 186° |
| 2026-05-09 07:08 | 47.23772 | 39.83057 | 13335 ft | 403 kts | 186° |
| 2026-05-09 07:08 | 47.20966 | 39.82666 | 14559 ft | 408 kts | 186° |
| 2026-05-09 07:08 | 47.18114 | 39.82323 | 15645 ft | 417 kts | 184° |
| 2026-05-09 07:08 | 47.15201 | 39.82081 | 16647 ft | 423 kts | 184° |
| 2026-05-09 07:09 | 47.12248 | 39.81824 | 17648 ft | 428 kts | 184° |
| 2026-05-09 07:09 | 47.09256 | 39.81559 | 18544 ft | 435 kts | 184° |
| 2026-05-09 07:09 | 47.06211 | 39.81289 | 19297 ft | 443 kts | 184° |
| 2026-05-09 07:09 | 47.03116 | 39.81013 | 20052 ft | 450 kts | 184° |
| 2026-05-09 07:10 | 46.99978 | 39.80735 | 20806 ft | 455 kts | 184° |
| 2026-05-09 07:10 | 46.96806 | 39.80453 | 21498 ft | 461 kts | 184° |
| 2026-05-09 07:10 | 46.93590 | 39.80168 | 22102 ft | 467 kts | 184° |
| 2026-05-09 07:10 | 46.90330 | 39.79879 | 22707 ft | 473 kts | 184° |
| 2026-05-09 07:11 | 46.87036 | 39.79588 | 23310 ft | 477 kts | 184° |
| 2026-05-09 07:11 | 46.83716 | 39.79294 | 23912 ft | 481 kts | 184° |
| 2026-05-09 07:11 | 46.80367 | 39.78999 | 24461 ft | 485 kts | 184° |
| 2026-05-09 07:11 | 46.76991 | 39.78701 | 24961 ft | 489 kts | 184° |
| 2026-05-09 07:12 | 46.73589 | 39.78402 | 25460 ft | 493 kts | 184° |
| 2026-05-09 07:12 | 46.70157 | 39.78100 | 25878 ft | 498 kts | 184° |
| 2026-05-09 07:12 | 46.66693 | 39.77796 | 26281 ft | 502 kts | 184° |
| 2026-05-09 07:12 | 46.63202 | 39.77490 | 26683 ft | 505 kts | 184° |
| 2026-05-09 07:13 | 46.59688 | 39.77182 | 27085 ft | 508 kts | 184° |
| 2026-05-09 07:13 | 46.56156 | 39.76873 | 27485 ft | 510 kts | 184° |
| 2026-05-09 07:13 | 46.52613 | 39.76564 | 27885 ft | 512 kts | 184° |
| 2026-05-09 07:13 | 46.49051 | 39.76253 | 28189 ft | 516 kts | 184° |
| 2026-05-09 07:14 | 46.45467 | 39.75941 | 28439 ft | 519 kts | 184° |
| 2026-05-09 07:14 | 46.41865 | 39.75628 | 28687 ft | 519 kts | 184° |
| 2026-05-09 07:14 | 46.38274 | 39.75316 | 28935 ft | 519 kts | 184° |
| 2026-05-09 07:14 | 46.34674 | 39.75013 | 29184 ft | 519 kts | 184° |
| 2026-05-09 07:15 | 46.31079 | 39.74771 | 29433 ft | 519 kts | 183° |
| 2026-05-09 07:15 | 46.27480 | 39.74524 | 29681 ft | 519 kts | 183° |
| 2026-05-09 07:15 | 46.23884 | 39.74276 | 29929 ft | 519 kts | 183° |
| 2026-05-09 07:15 | 46.20286 | 39.74027 | 30178 ft | 519 kts | 183° |
| 2026-05-09 07:16 | 46.16686 | 39.73778 | 30426 ft | 519 kts | 183° |
| 2026-05-09 07:16 | 46.13092 | 39.73530 | 30674 ft | 519 kts | 183° |
| 2026-05-09 07:16 | 46.09494 | 39.73282 | 30922 ft | 519 kts | 183° |
| 2026-05-09 07:16 | 46.05896 | 39.73034 | 31174 ft | 519 kts | 183° |
| 2026-05-09 07:17 | 46.02298 | 39.72787 | 31426 ft | 519 kts | 183° |
| 2026-05-09 07:17 | 45.98698 | 39.72540 | 31680 ft | 519 kts | 183° |
| 2026-05-09 07:17 | 45.95097 | 39.72293 | 31934 ft | 519 kts | 183° |
| 2026-05-09 07:17 | 45.91480 | 39.72045 | 31974 ft | 525 kts | 183° |
| 2026-05-09 07:18 | 45.84120 | 39.71543 | 32060 ft | 534 kts | 183° |
| 2026-05-09 07:18 | 45.80422 | 39.71291 | 32369 ft | 533 kts | 183° |
| 2026-05-09 07:18 | 45.76725 | 39.71040 | 32629 ft | 533 kts | 183° |
| 2026-05-09 07:19 | 45.73027 | 39.70789 | 32874 ft | 533 kts | 183° |
| 2026-05-09 07:19 | 45.69343 | 39.70540 | 32994 ft | 530 kts | 183° |
| 2026-05-09 07:19 | 45.62002 | 39.70044 | 32994 ft | 529 kts | 183° |
| 2026-05-09 07:20 | 45.54665 | 39.69549 | 32994 ft | 529 kts | 183° |
| 2026-05-09 07:20 | 45.47330 | 39.69047 | 32994 ft | 529 kts | 183° |
| 2026-05-09 07:21 | 45.39992 | 39.68544 | 32994 ft | 529 kts | 183° |
| 2026-05-09 07:21 | 45.32657 | 39.68042 | 32995 ft | 529 kts | 183° |
| 2026-05-09 07:22 | 45.25324 | 39.67520 | 32991 ft | 529 kts | 185° |
| 2026-05-09 07:22 | 45.18007 | 39.67937 | 32982 ft | 529 kts | 171° |
| 2026-05-09 07:23 | 45.10738 | 39.69537 | 32999 ft | 530 kts | 173° |
| 2026-05-09 07:23 | 45.03448 | 39.70967 | 33000 ft | 530 kts | 172° |
| 2026-05-09 07:24 | 44.96162 | 39.72409 | 33000 ft | 530 kts | 172° |
| 2026-05-09 07:24 | 44.88876 | 39.73847 | 33000 ft | 530 kts | 172° |
| 2026-05-09 07:25 | 44.81587 | 39.75283 | 33001 ft | 530 kts | 172° |
| 2026-05-09 07:25 | 44.74302 | 39.76714 | 33001 ft | 530 kts | 172° |
| 2026-05-09 07:26 | 44.67014 | 39.78142 | 33001 ft | 530 kts | 172° |
| 2026-05-09 07:26 | 44.59726 | 39.79566 | 33002 ft | 530 kts | 172° |
| 2026-05-09 07:27 | 44.52435 | 39.80987 | 33003 ft | 531 kts | 172° |
| 2026-05-09 07:27 | 44.45183 | 39.82397 | 32992 ft | 522 kts | 172° |
| 2026-05-09 07:28 | 44.38071 | 39.83776 | 32987 ft | 515 kts | 172° |
| 2026-05-09 07:28 | 44.31179 | 39.86169 | 32985 ft | 509 kts | 161° |
| 2026-05-09 07:29 | 44.24425 | 39.88981 | 32990 ft | 506 kts | 165° |
| 2026-05-09 07:29 | 44.17709 | 39.91628 | 32989 ft | 499 kts | 165° |
| 2026-05-09 07:30 | 44.11046 | 39.94261 | 32740 ft | 502 kts | 165° |
| 2026-05-09 07:30 | 44.07662 | 39.95596 | 32210 ft | 512 kts | 165° |
| 2026-05-09 07:30 | 44.04211 | 39.96956 | 31671 ft | 519 kts | 165° |
| 2026-05-09 07:31 | 44.00743 | 39.98321 | 31132 ft | 519 kts | 165° |
| 2026-05-09 07:31 | 43.97277 | 39.99684 | 30585 ft | 520 kts | 165° |
| 2026-05-09 07:31 | 43.93785 | 40.01061 | 30038 ft | 526 kts | 165° |
| 2026-05-09 07:31 | 43.90268 | 40.02447 | 29486 ft | 526 kts | 165° |
| 2026-05-09 07:32 | 43.86749 | 40.03832 | 28936 ft | 526 kts | 165° |
| 2026-05-09 07:32 | 43.83265 | 40.05201 | 28381 ft | 517 kts | 165° |
| 2026-05-09 07:32 | 43.79805 | 40.06560 | 27838 ft | 519 kts | 165° |
| 2026-05-09 07:32 | 43.76373 | 40.07906 | 27279 ft | 509 kts | 165° |
| 2026-05-09 07:33 | 43.73002 | 40.09227 | 26722 ft | 500 kts | 165° |
| 2026-05-09 07:33 | 43.66438 | 40.11767 | 25609 ft | 482 kts | 165° |
| 2026-05-09 07:33 | 43.63240 | 40.12979 | 25053 ft | 473 kts | 165° |
| 2026-05-09 07:34 | 43.60099 | 40.14170 | 24496 ft | 465 kts | 165° |
| 2026-05-09 07:34 | 43.57011 | 40.15341 | 23940 ft | 457 kts | 165° |
| 2026-05-09 07:34 | 43.53981 | 40.16492 | 23384 ft | 449 kts | 165° |
| 2026-05-09 07:34 | 43.50999 | 40.17624 | 22828 ft | 442 kts | 165° |
| 2026-05-09 07:35 | 43.48070 | 40.18737 | 22272 ft | 434 kts | 165° |
| 2026-05-09 07:35 | 43.45188 | 40.19833 | 21715 ft | 427 kts | 165° |
| 2026-05-09 07:35 | 43.42356 | 40.20911 | 21159 ft | 420 kts | 165° |
| 2026-05-09 07:35 | 43.39570 | 40.21971 | 20603 ft | 413 kts | 165° |
| 2026-05-09 07:36 | 43.36830 | 40.23014 | 20046 ft | 406 kts | 165° |
| 2026-05-09 07:36 | 43.34068 | 40.23502 | 19445 ft | 398 kts | 182° |
| 2026-05-09 07:36 | 43.31418 | 40.22707 | 18889 ft | 388 kts | 203° |
| 2026-05-09 07:36 | 43.29225 | 40.20695 | 18336 ft | 377 kts | 225° |
| 2026-05-09 07:37 | 43.27805 | 40.17762 | 17789 ft | 367 kts | 248° |
| 2026-05-09 07:37 | 43.27336 | 40.14395 | 17247 ft | 357 kts | 270° |
| 2026-05-09 07:37 | 43.27789 | 40.11118 | 16712 ft | 348 kts | 290° |
| 2026-05-09 07:37 | 43.28987 | 40.08297 | 16177 ft | 340 kts | 308° |
| 2026-05-09 07:38 | 43.30661 | 40.06068 | 15664 ft | 333 kts | 319° |
| 2026-05-09 07:38 | 43.32416 | 40.04052 | 15123 ft | 327 kts | 321° |
| 2026-05-09 07:38 | 43.34004 | 40.01890 | 14559 ft | 320 kts | 307° |
| 2026-05-09 07:38 | 43.34994 | 39.99203 | 14020 ft | 314 kts | 288° |
| 2026-05-09 07:39 | 43.35288 | 39.96268 | 13480 ft | 310 kts | 270° |
| 2026-05-09 07:39 | 43.34868 | 39.93401 | 12939 ft | 307 kts | 251° |
| 2026-05-09 07:39 | 43.33790 | 39.90903 | 12403 ft | 305 kts | 232° |
| 2026-05-09 07:39 | 43.32417 | 39.88717 | 11882 ft | 301 kts | 233° |
| 2026-05-09 07:40 | 43.31274 | 39.86331 | 11330 ft | 299 kts | 232° |
| 2026-05-09 07:40 | 43.29668 | 39.84539 | 10793 ft | 299 kts | 213° |
| 2026-05-09 07:40 | 43.27851 | 39.83176 | 10266 ft | 297 kts | 209° |
| 2026-05-09 07:40 | 43.26021 | 39.81877 | 9714 ft | 297 kts | 206° |
| 2026-05-09 07:41 | 43.24109 | 39.80822 | 9174 ft | 296 kts | 202° |
| 2026-05-09 07:41 | 43.22189 | 39.79820 | 8625 ft | 296 kts | 202° |
| 2026-05-09 07:41 | 43.20273 | 39.78822 | 8077 ft | 295 kts | 202° |
| 2026-05-09 07:41 | 43.18364 | 39.77827 | 7530 ft | 294 kts | 202° |
| 2026-05-09 07:42 | 43.16457 | 39.76835 | 6981 ft | 293 kts | 202° |
| 2026-05-09 07:42 | 43.14560 | 39.75848 | 6434 ft | 292 kts | 202° |
| 2026-05-09 07:42 | 43.12668 | 39.74865 | 5886 ft | 291 kts | 202° |
| 2026-05-09 07:42 | 43.10783 | 39.73876 | 5336 ft | 290 kts | 203° |
| 2026-05-09 07:43 | 43.08966 | 39.72712 | 4792 ft | 289 kts | 207° |
| 2026-05-09 07:43 | 43.07162 | 39.71523 | 4244 ft | 288 kts | 207° |
| 2026-05-09 07:43 | 43.05464 | 39.70192 | 3975 ft | 274 kts | 220° |
| 2026-05-09 07:43 | 43.04400 | 39.68193 | 3976 ft | 252 kts | 247° |
| 2026-05-09 07:44 | 43.04187 | 39.65940 | 3980 ft | 234 kts | 276° |
| 2026-05-09 07:44 | 43.04814 | 39.63950 | 3988 ft | 229 kts | 306° |
| 2026-05-09 07:44 | 43.06089 | 39.62674 | 3836 ft | 233 kts | 335° |
| 2026-05-09 07:44 | 43.07693 | 39.62441 | 3570 ft | 237 kts | 5° |
| 2026-05-09 07:45 | 43.09195 | 39.63358 | 3302 ft | 242 kts | 35° |
| 2026-05-09 07:45 | 43.10331 | 39.65065 | 3099 ft | 244 kts | 49° |
| 2026-05-09 07:45 | 43.11429 | 39.66813 | 3000 ft | 240 kts | 48° |
| 2026-05-09 07:45 | 43.12497 | 39.68513 | 2990 ft | 232 kts | 48° |
| 2026-05-09 07:46 | 43.13534 | 39.70169 | 2990 ft | 229 kts | 48° |
| 2026-05-09 07:46 | 43.14584 | 39.71817 | 2992 ft | 231 kts | 46° |
| 2026-05-09 07:46 | 43.15739 | 39.73328 | 2992 ft | 230 kts | 39° |
| 2026-05-09 07:46 | 43.17008 | 39.74617 | 2993 ft | 229 kts | 32° |
| 2026-05-09 07:47 | 43.18379 | 39.75745 | 2994 ft | 229 kts | 29° |
| 2026-05-09 07:47 | 43.19751 | 39.76838 | 2993 ft | 228 kts | 28° |
| 2026-05-09 07:47 | 43.21146 | 39.77867 | 2993 ft | 228 kts | 26° |
| 2026-05-09 07:47 | 43.22563 | 39.78836 | 2993 ft | 228 kts | 25° |
| 2026-05-09 07:48 | 43.23980 | 39.79805 | 2993 ft | 228 kts | 25° |
| 2026-05-09 07:48 | 43.25386 | 39.80806 | 2992 ft | 228 kts | 26° |
| 2026-05-09 07:48 | 43.26765 | 39.81866 | 2991 ft | 226 kts | 28° |
| 2026-05-09 07:48 | 43.28105 | 39.82906 | 2987 ft | 219 kts | 28° |
| 2026-05-09 07:49 | 43.29406 | 39.83918 | 2986 ft | 211 kts | 28° |
| 2026-05-09 07:49 | 43.30656 | 39.84894 | 2900 ft | 206 kts | 28° |
| 2026-05-09 07:49 | 43.31901 | 39.85867 | 2657 ft | 204 kts | 27° |
| 2026-05-09 07:49 | 43.33135 | 39.86763 | 2342 ft | 198 kts | 26° |
| 2026-05-09 07:50 | 43.34292 | 39.87677 | 2131 ft | 184 kts | 30° |
| 2026-05-09 07:50 | 43.35363 | 39.88551 | 1824 ft | 175 kts | 28° |
| 2026-05-09 07:50 | 43.36387 | 39.89320 | 1579 ft | 164 kts | 26° |
| 2026-05-09 07:50 | 43.37374 | 39.89999 | 1306 ft | 152 kts | 24° |
| 2026-05-09 07:51 | 43.38284 | 39.90672 | 986 ft | 148 kts | 27° |
| 2026-05-09 07:51 | 43.39168 | 39.91330 | 735 ft | 142 kts | 26° |
| 2026-05-09 07:51 | 43.40017 | 39.91950 | 652 ft | 137 kts | 24° |
| 2026-05-09 07:51 | 43.40872 | 39.92551 | 615 ft | 141 kts | 28° |
| 2026-05-09 07:52 | 43.41719 | 39.93218 | 509 ft | 140 kts | 24° |
| 2026-05-09 07:52 | 43.42585 | 39.93814 | 318 ft | 139 kts | 25° |
| 2026-05-09 07:52 | 43.43421 | 39.94449 | 132 ft | 138 kts | 24° |
| 2026-05-09 07:52 | 43.44165 | 39.95002 | 100 ft | 88 kts | 30° |
| 2026-05-09 07:53 | 43.44549 | 39.95281 | 100 ft | 41 kts | 23° |
| 2026-05-09 07:53 | 43.44766 | 39.95261 | 100 ft | 25 kts | 350° |
| 2026-05-09 07:53 | 43.44801 | 39.95244 | 100 ft | 8 kts | 332° |